Weather observations for the past three days for
Fort Stockton, Fort Stockton-Pecos County Airport
Imperial (Metric)
Date Time (cdt) Wind (mph) Vis. (mi.) Weather Sky Cond. Temperature (ºF) Relative Humidity Wind Chill (°F) Heat Index (°F) Pressure Precipitation (in)
Air Dwpt 6 hour altimeter (in) sea level (mb) 1 hr 3 hr 6 hr
Max. Min.
07 14:53 E 5 10.00 Overcast BKN035 OVC042 68 48.9 51% 30.04 1013.6
07 13:53 Vrbl 3 10.00 Overcast OVC031 66.9 50 55% 30.07 1014.3
07 12:53 N 7 10.00 Overcast OVC026 64 48.9 64 55.9 58% 30.09 1015.3
07 11:53 NE 7 10.00 Overcast OVC020 62.1 48.9 62% 30.12 1016.2
07 10:53 NE 9 10.00 Overcast OVC015 59 48.9 69% 30.13 1016.5
07 09:53 NE 10 10.00 Overcast OVC013 57 48.9 74% 30.13 1016.7
07 08:53 NE 13 10.00 Overcast OVC012 55.9 50 81% 30.12 1016.2
07 07:53 NE 10 10.00 Overcast OVC010 57 51.1 81% 30.1 1015.5
07 06:53 NE 13 10.00 A Few Clouds FEW014 57 51.1 70 57 81% 30.07 1014.2
07 05:53 NE 7 10.00 A Few Clouds FEW020 60.1 52 75% 30.05 1013.6
07 04:53 SE 12 G 22 10.00 Fair CLR 64 52 65% 30 1011.4
07 03:53 SE 9 10.00 Fair CLR 66 46.9 50% 30 1011.5
07 02:53 SE 10 10.00 Fair CLR 64.9 46.9 52% 30.02 1012.2
07 01:53 E 6 10.00 Fair CLR 68 43 40% 30.01 1012.1
07 00:53 S 9 10.00 Fair CLR 69.1 50 81 69.1 51% 29.99 1011.2
06 23:53 SE 12 G 22 10.00 Fair CLR 71.1 50 47% 29.97 1010.5
06 22:53 SE 10 10.00 Fair CLR 72 42.1 34% 29.96 1010.0
06 21:53 SE 9 10.00 Fair CLR 73.9 41 31% 29.94 1009.4
06 20:53 SE 9 10.00 Fair CLR 77 39 26% 77 29.91 1008.4
06 19:53 SE 8 10.00 Fair CLR 80.1 39 23% 79 29.89 1007.5
06 18:53 SE 10 10.00 Fair CLR 81 39.9 82.9 73 23% 79 29.88 1007.1
06 17:53 SE 9 10.00 Fair CLR 81 39.9 23% 79 29.88 1007.1
06 16:53 Vrbl 3 10.00 Fair CLR 81 39.9 23% 79 29.89 1007.6
06 15:53 Calm 10.00 Fair CLR 80.1 39.9 24% 79 29.92 1008.6
06 14:53 Vrbl 7 10.00 Fair CLR 78.1 42.1 28% 78 29.94 1009.3
06 13:53 E 10 10.00 Fair CLR 75 46 36% 77 29.96 1009.9
06 12:53 NE 14 10.00 Fair CLR 73 46 78.1 66.9 38% 29.97 1010.4
06 11:53 NE 13 G 23 10.00 Fair CLR 73.9 46 37% 29.97 1010.3
06 10:53 NW 17 10.00 Fair CLR 77 32 19% 77 29.95 1009.7
06 09:53 NW 7 10.00 Fair CLR 72 35.1 26% 29.94 1009.4
06 08:53 W 8 10.00 Fair CLR 70 37 30% 29.93 1009.0
06 07:53 W 7 10.00 Fair CLR 66.9 42.1 41% 29.9 1008.1
06 06:53 W 9 10.00 Fair CLR 70 41 73.9 69.1 35% 29.88 1007.0
06 05:53 SW 10 10.00 Fair CLR 70 39.9 34% 29.87 1006.5
06 04:53 SW 9 10.00 Fair CLR 71.1 37.9 30% 29.86 1005.9
06 03:53 SW 9 10.00 Fair CLR 70 37.9 31% 29.85 1005.8
06 02:53 W 6 10.00 Fair CLR 71.1 37.9 30% 29.86 1006.0
06 01:53 S 9 10.00 Fair CLR 73 36 26% 29.85 1005.5
06 00:53 S 14 10.00 Fair CLR 73.9 37 82.9 72 26% 29.84 1005.4
05 23:53 S 10 10.00 Fair CLR 73 39 29% 29.83 1005.3
05 22:53 S 8 10.00 Fair CLR 72 41 33% 29.83 1005.3
05 21:53 SE 7 10.00 Fair CLR 75 39.9 28% 77 29.81 1004.7
05 20:53 E 5 10.00 Fair CLR 77 37.9 24% 77 29.8 1004.4
05 19:53 N 8 10.00 Fair CLR 81 34 18% 79 29.79 1004.0
05 18:53 NW 16 10.00 Fair CLR 82.9 30.9 88 82.9 15% 80 29.79 1003.8
05 17:53 NW 22 G 28 10.00 Fair and Breezy CLR 84 30.9 15% 81 29.79 1003.9
05 16:53 NW 14 G 22 10.00 Fair CLR 86 37 18% 83 29.81 1004.5
05 15:53 W 10 G 21 10.00 Fair CLR 88 36 16% 84 29.82 1004.5
05 14:53 NW 9 10.00 Fair CLR 84.9 36 17% 82 29.83 1005.1
05 13:53 W 13 G 23 10.00 Fair CLR 86 36 17% 83 29.85 1005.8
05 12:53 NW 20 G 31 10.00 Fair CLR 84 36 84.9 69.1 18% 81 29.86 1006.2
05 11:53 NW 18 G 28 10.00 Fair CLR 82.9 36 19% 80 29.87 1006.6
05 10:53 NW 22 G 31 10.00 Fair and Breezy CLR 81 35.1 19% 79 29.86 1006.1
05 09:53 W 12 10.00 Fair CLR 78.1 39 25% 78 29.86 1006.2
05 08:53 W 9 10.00 Fair CLR 71.1 39.9 32% 29.85 1005.7
05 07:53 W 9 10.00 Fair CLR 70 37.9 31% 29.81 1004.4
05 06:53 W 12 10.00 Fair CLR 71.1 37 73 68 29% 29.79 1003.6
05 05:53 W 10 10.00 Fair CLR 69.1 39 33% 29.78 1003.3
05 04:53 SW 12 10.00 Fair CLR 68 42.1 39% 29.78 1003.2
05 03:53 SW 13 10.00 Fair CLR 70 46 42% 29.78 1003.2
05 02:53 S 9 10.00 Fair CLR 70 55 59% 29.78 1003.4
05 01:53 S 10 10.00 Fair CLR 71.1 55.9 59% 29.8 1003.9
05 00:53 S 9 10.00 Fair CLR 73 55 90 73 53% 29.81 1004.3
04 23:53 S 12 10.00 Fair CLR 75 54 48% 78 29.82 1004.7
04 22:53 S 10 10.00 Fair CLR 77 52 42% 78 29.82 1004.6
04 21:53 S 5 10.00 Fair CLR 80.1 52 38% 80 29.81 1004.6
04 20:53 SE 9 10.00 Fair CLR 84 52 33% 82 29.79 1004.2
04 19:53 W 7 10.00 Fair CLR 88 34 15% 84 29.78 1003.8
04 18:53 W 3 10.00 Fair CLR 90 41 91.9 84.9 18% 86 29.79 1004.0
04 17:53 SW 5 10.00 Fair CLR 90 41 18% 86 29.8 1004.3
04 16:53 Vrbl 3 10.00 Fair CLR 91 41 17% 87 29.81 1004.4
04 15:53 N 8 10.00 Fair CLR 90 41 18% 86 29.84 1005.6
Date Time (cdt) Wind (mph) Vis. (mi.) Weather Sky Cond. Air Dwpt Max. Min. Relative Humidity Wind Chill (°F) Heat Index (°F) altimeter (in) sea level (mb) 1 hr 3 hr 6 hr
6 hour
Temperature (ºF) Pressure Precipitation (in)